VDPP/PNH METAR and TAF weather

Enter ICAO airport designator
Station Type Date Time Source
VDPP METAR 2019/10/15 19:00 UTC NOAA

VDPP 151900Z 23004KT 200V260 9000 SCT015 FEW017CB BKN040 25/24 Q1010 CB


Station Type Date Time Source
VDPP Decoded METAR 2019/10/15 19:00 UTC NOAA

Phnom-Penh / Pochentong, Cambodia (VDPP) 11-33N 104-51E 10M
Oct 15, 2019 - 03:00 PM EDT / 2019.10.15 1900 UTC
Wind: from the SW (230 degrees) at 5 MPH (4 KT) (direction variable):0
Visibility: 5 mile(s):0
Sky conditions: mostly cloudy
Weather: Cumulonimbus clouds observed
Temperature: 77 F (25 C)
Dew Point: 75 F (24 C)
Relative Humidity: 94%
Pressure (altimeter): 29.83 in. Hg (1010 hPa)
ob: VDPP 151900Z 23004KT 200V260 9000 SCT015 FEW017CB BKN040 25/24 Q1010 CB
cycle: 19

Station Type Date Time Source
VDPP TAF 2019/10/15 18:00 UTC NOAA

TAF VDPP 151700Z 1518/1612 04008KT 6000-TSRA SCT017
BECMG 1522/1523 9999 SCT017 SCT040
TEMPO 1523/1603 5000 TSRA SCT015 FEW017CB SCT040

Example: see airport list